Time;durP1;ratioP1;P1;durP2;ratioP2;P2;SDS_P1;SDS_P2;PMS_P1;PMS_P2;Temp;Humidity;BMP_temperature;BMP_pressure;BME280_temperature;BME280_humidity;BME280_pressure;Samples;Min_cycle;Max_cycle;Signal;HPM_P1;HPM_P2
2022/01/29 00:02:24;;;;;;;10.93;3.15;;;7.10;51.80;;;;;;5090061;28;20016;-64
2022/01/29 00:04:53;;;;;;;12.68;3.42;;;7.10;51.90;;;;;;5088909;28;20109;-65
2022/01/29 00:07:20;;;;;;;8.32;2.95;;;7.10;51.90;;;;;;5087158;28;20032;-63
2022/01/29 00:09:48;;;;;;;12.43;3.03;;;7.10;51.90;;;;;;5082300;28;20059;-63
2022/01/29 00:12:14;;;;;;;9.68;3.00;;;7.10;51.90;;;;;;5086504;28;20041;-63
2022/01/29 00:14:40;;;;;;;12.85;3.05;;;7.10;52.00;;;;;;5089574;28;20023;-63
2022/01/29 00:17:06;;;;;;;15.63;2.67;;;7.10;52.10;;;;;;5084646;28;20025;-64
2022/01/29 00:19:38;;;;;;;13.93;2.90;;;7.00;52.10;;;;;;5087362;28;20027;-63
2022/01/29 00:22:04;;;;;;;10.90;2.40;;;7.00;52.20;;;;;;5088584;28;20120;-64
2022/01/29 00:24:30;;;;;;;12.25;2.88;;;7.10;52.30;;;;;;5084291;28;20521;-63
2022/01/29 00:26:56;;;;;;;12.43;3.00;;;7.10;52.30;;;;;;5087037;28;20103;-64
2022/01/29 00:29:22;;;;;;;14.75;2.88;;;7.10;52.20;;;;;;5088931;28;20594;-64
2022/01/29 00:31:51;;;;;;;12.82;3.00;;;7.10;52.30;;;;;;5087505;28;20111;-64
2022/01/29 00:34:17;;;;;;;9.55;2.40;;;7.20;52.10;;;;;;5084544;28;20116;-64
2022/01/29 00:36:42;;;;;;;12.32;3.25;;;7.10;52.00;;;;;;5087922;28;20048;-64
2022/01/29 00:39:08;;;;;;;14.38;2.95;;;7.00;52.10;;;;;;5089765;28;20140;-63
2022/01/29 00:41:34;;;;;;;12.80;3.00;;;7.00;52.20;;;;;;5087686;28;20028;-63
2022/01/29 00:43:59;;;;;;;13.48;3.35;;;7.00;52.00;;;;;;5093819;28;20024;-64
2022/01/29 00:46:25;;;;;;;15.48;2.67;;;7.00;52.10;;;;;;5078861;28;20384;-63
2022/01/29 00:48:51;;;;;;;11.95;3.08;;;6.90;52.10;;;;;;5099007;28;20053;-63
2022/01/29 00:51:16;;;;;;;16.73;2.78;;;6.70;52.50;;;;;;5088993;28;20089;-64
2022/01/29 00:53:42;;;;;;;14.07;2.60;;;6.70;52.60;;;;;;5085207;28;20377;-63
2022/01/29 00:56:10;;;;;;;13.05;2.83;;;6.70;52.90;;;;;;5077996;28;20086;-63
2022/01/29 00:58:35;;;;;;;11.82;2.80;;;6.70;53.00;;;;;;5087830;28;20024;-63
2022/01/29 01:01:02;;;;;;;10.25;3.00;;;6.60;53.00;;;;;;5091496;28;20089;-64
2022/01/29 01:03:27;;;;;;;18.00;3.20;;;6.60;53.20;;;;;;5085472;28;20047;-64
2022/01/29 01:05:53;;;;;;;14.65;2.95;;;6.50;53.30;;;;;;5086601;28;20043;-64
2022/01/29 01:08:19;;;;;;;11.55;2.60;;;6.30;53.70;;;;;;5087195;28;20025;-63
2022/01/29 01:10:44;;;;;;;16.25;3.05;;;6.30;53.70;;;;;;5090552;28;20032;-63
2022/01/29 01:13:10;;;;;;;14.35;2.80;;;6.30;53.90;;;;;;5087242;28;20025;-63
2022/01/29 01:15:36;;;;;;;14.60;2.58;;;6.30;53.90;;;;;;5104757;28;20024;-65
2022/01/29 01:18:02;;;;;;;15.93;3.30;;;6.30;54.10;;;;;;5088924;28;20493;-64
2022/01/29 01:20:28;;;;;;;15.60;3.17;;;6.20;54.10;;;;;;5088287;28;20025;-63
2022/01/29 01:22:54;;;;;;;16.25;3.90;;;6.20;54.30;;;;;;5085243;28;20149;-63
2022/01/29 01:25:19;;;;;;;10.55;2.72;;;6.10;54.40;;;;;;5088926;28;20228;-63
2022/01/29 01:27:45;;;;;;;21.23;3.13;;;6.10;54.60;;;;;;5094584;28;20066;-63
2022/01/29 01:30:11;;;;;;;15.80;3.28;;;6.10;54.70;;;;;;5089622;28;20053;-63
2022/01/29 01:32:37;;;;;;;12.88;2.97;;;6.10;54.70;;;;;;5077834;28;20162;-63
2022/01/29 01:35:15;;;;;;;14.98;3.25;;;6.10;54.70;;;;;;5088749;28;20106;-64
2022/01/29 01:37:48;;;;;;;15.07;3.70;;;6.20;54.60;;;;;;5091978;28;20026;-63
2022/01/29 01:40:15;;;;;;;11.70;2.53;;;6.20;54.60;;;;;;5089063;28;20024;-63
2022/01/29 01:42:40;;;;;;;11.75;3.03;;;6.20;54.60;;;;;;5092956;28;20031;-63
2022/01/29 01:45:06;;;;;;;13.85;3.50;;;6.20;54.50;;;;;;5090732;28;20044;-63
2022/01/29 01:47:32;;;;;;;11.85;2.78;;;6.20;54.80;;;;;;5093281;28;20031;-64
2022/01/29 01:49:58;;;;;;;18.08;3.92;;;6.00;55.10;;;;;;5085377;28;20540;-64
2022/01/29 01:52:24;;;;;;;14.10;3.10;;;6.00;55.20;;;;;;5086952;28;20032;-65
2022/01/29 01:54:49;;;;;;;17.10;3.05;;;6.10;55.20;;;;;;5086576;28;20028;-65
2022/01/29 01:57:17;;;;;;;11.68;3.22;;;6.00;55.20;;;;;;5083625;28;20031;-63
2022/01/29 01:59:44;;;;;;;15.20;2.85;;;6.00;55.30;;;;;;5087376;28;20056;-63
2022/01/29 02:02:10;;;;;;;15.05;3.35;;;5.90;55.50;;;;;;5090753;28;20640;-64
2022/01/29 02:04:36;;;;;;;16.42;3.45;;;5.90;55.50;;;;;;5088241;28;20033;-64
2022/01/29 02:07:02;;;;;;;13.13;3.15;;;5.90;55.60;;;;;;5097368;28;20039;-63
2022/01/29 02:09:30;;;;;;;14.60;3.50;;;6.00;55.50;;;;;;5087829;28;20091;-64
2022/01/29 02:11:58;;;;;;;15.98;3.55;;;6.00;55.30;;;;;;5091681;28;20031;-64
2022/01/29 02:14:26;;;;;;;17.08;3.00;;;6.00;55.40;;;;;;5082352;28;20024;-63
2022/01/29 02:16:52;;;;;;;12.82;3.30;;;6.00;55.40;;;;;;5086165;28;20043;-63
2022/01/29 02:19:18;;;;;;;15.38;3.53;;;5.90;55.60;;;;;;5095382;28;20020;-64
2022/01/29 02:21:43;;;;;;;12.68;2.95;;;5.90;55.90;;;;;;5088264;28;20055;-63
2022/01/29 02:24:09;;;;;;;14.02;2.95;;;5.80;55.90;;;;;;5092287;28;20099;-63
2022/01/29 02:26:35;;;;;;;14.50;3.00;;;5.90;55.80;;;;;;5086022;28;20130;-63
2022/01/29 02:29:01;;;;;;;11.63;2.95;;;5.80;55.90;;;;;;5089245;28;20023;-63
2022/01/29 02:31:26;;;;;;;12.23;3.22;;;5.90;55.80;;;;;;5078087;28;20021;-63
2022/01/29 02:33:53;;;;;;;15.20;3.10;;;5.80;55.90;;;;;;5082044;28;20488;-63
2022/01/29 02:36:18;;;;;;;15.73;3.17;;;5.90;55.90;;;;;;5083037;28;20024;-63
2022/01/29 02:38:44;;;;;;;19.33;3.78;;;5.90;55.80;;;;;;5091605;28;20440;-63
2022/01/29 02:41:10;;;;;;;12.77;2.83;;;5.90;55.90;;;;;;5089022;28;20043;-64
2022/01/29 02:43:48;;;;;;;11.23;2.88;;;5.80;56.00;;;;;;5086529;28;20028;-63
2022/01/29 02:48:48;;;;;;;11.60;2.90;;;5.90;56.00;;;;;;5092802;28;20038;-62
2022/01/29 02:51:15;;;;;;;15.32;3.42;;;5.90;56.00;;;;;;5094191;28;20020;-63
2022/01/29 02:53:41;;;;;;;17.67;3.53;;;5.90;56.00;;;;;;5082896;28;20028;-63
2022/01/29 02:56:08;;;;;;;12.32;3.25;;;5.90;56.40;;;;;;5082552;28;20054;-63
2022/01/29 02:58:34;;;;;;;12.57;2.70;;;5.80;56.60;;;;;;5089882;28;20051;-63
2022/01/29 03:00:59;;;;;;;11.32;4.30;;;5.80;56.70;;;;;;5089682;28;20541;-63
2022/01/29 03:03:25;;;;;;;11.13;3.05;;;5.90;56.70;;;;;;5083445;28;20028;-64
2022/01/29 03:05:52;;;;;;;12.93;3.20;;;5.80;56.60;;;;;;5096465;28;20495;-63
2022/01/29 03:08:17;;;;;;;14.13;3.22;;;5.90;56.80;;;;;;5090616;28;20019;-64
2022/01/29 03:10:43;;;;;;;13.27;3.42;;;5.90;56.90;;;;;;5090163;28;20035;-62
2022/01/29 03:13:09;;;;;;;13.35;3.55;;;5.90;57.00;;;;;;5085865;28;20535;-63
2022/01/29 03:15:35;;;;;;;16.48;4.22;;;5.90;57.20;;;;;;5091101;28;20127;-63
2022/01/29 03:18:01;;;;;;;11.02;3.50;;;5.80;57.60;;;;;;5090037;28;20031;-63
2022/01/29 03:20:27;;;;;;;13.27;3.40;;;5.80;58.10;;;;;;5085370;28;20024;-63
2022/01/29 03:22:53;;;;;;;15.77;3.75;;;5.80;58.00;;;;;;5075707;28;20550;-63
2022/01/29 03:25:18;;;;;;;17.73;4.03;;;5.80;58.50;;;;;;5061837;28;20405;-63
2022/01/29 03:27:44;;;;;;;14.10;3.70;;;5.80;58.50;;;;;;5074549;28;20104;-63
2022/01/29 03:30:10;;;;;;;11.02;3.65;;;5.80;58.50;;;;;;5074779;28;20108;-63
2022/01/29 03:32:36;;;;;;;13.75;3.75;;;5.80;58.80;;;;;;5065949;28;20077;-63
2022/01/29 03:35:03;;;;;;;18.75;4.00;;;5.80;59.30;;;;;;5064786;28;20385;-63
2022/01/29 03:37:28;;;;;;;16.20;3.95;;;5.70;59.20;;;;;;5058967;28;20385;-63
2022/01/29 03:39:59;;;;;;;11.40;3.47;;;5.70;59.50;;;;;;5041363;28;20462;-63
2022/01/29 03:42:26;;;;;;;17.65;4.75;;;5.70;60.00;;;;;;5037854;28;20032;-63
2022/01/29 03:44:52;;;;;;;14.98;3.92;;;5.70;60.40;;;;;;5055035;28;20041;-64
2022/01/29 03:47:18;;;;;;;18.45;4.20;;;5.70;60.40;;;;;;5058137;28;20025;-64
2022/01/29 03:49:44;;;;;;;19.35;4.90;;;5.70;60.70;;;;;;5059447;28;20033;-64
2022/01/29 03:52:09;;;;;;;14.20;4.43;;;5.60;61.10;;;;;;5063337;28;20091;-64
2022/01/29 03:54:35;;;;;;;19.00;5.47;;;5.60;61.70;;;;;;5053636;28;20470;-64
2022/01/29 03:57:00;;;;;;;16.90;5.10;;;5.50;62.20;;;;;;5063960;28;20056;-63
2022/01/29 03:59:26;;;;;;;16.52;4.82;;;5.50;62.50;;;;;;5058410;28;20090;-63
2022/01/29 04:01:52;;;;;;;14.65;4.25;;;5.50;62.90;;;;;;5063228;28;20024;-63
2022/01/29 04:04:18;;;;;;;22.92;5.05;;;5.40;62.90;;;;;;5035925;28;20037;-63
2022/01/29 04:06:43;;;;;;;15.70;4.82;;;5.40;63.00;;;;;;5057372;28;20310;-64
2022/01/29 04:09:11;;;;;;;18.33;5.60;;;5.50;63.30;;;;;;5060215;28;20036;-64
2022/01/29 04:11:38;;;;;;;18.27;4.97;;;5.50;63.20;;;;;;5060161;28;20021;-63
2022/01/29 04:14:13;;;;;;;20.75;5.95;;;5.40;63.40;;;;;;5054330;28;20029;-62
2022/01/29 04:16:38;;;;;;;18.30;5.63;;;5.40;63.90;;;;;;5055155;28;20044;-63
2022/01/29 04:19:04;;;;;;;20.35;5.35;;;5.40;63.90;;;;;;5068026;28;20030;-63
2022/01/29 04:21:30;;;;;;;22.23;5.68;;;5.40;64.50;;;;;;5068548;28;20473;-63
2022/01/29 04:23:55;;;;;;;13.38;4.75;;;5.40;64.20;;;;;;5054238;28;20482;-63
2022/01/29 04:26:21;;;;;;;21.17;5.70;;;5.50;64.10;;;;;;5056166;28;20043;-63
2022/01/29 04:28:47;;;;;;;21.02;5.63;;;5.40;65.10;;;;;;5064524;28;20390;-63
2022/01/29 04:31:18;;;;;;;16.00;5.10;;;5.40;64.60;;;;;;5074157;28;20033;-62
2022/01/29 04:33:45;;;;;;;19.75;6.47;;;5.50;64.60;;;;;;5069269;28;20037;-63
2022/01/29 04:36:11;;;;;;;19.83;7.13;;;5.50;65.60;;;;;;5066645;28;20028;-63
2022/01/29 04:38:36;;;;;;;19.88;6.97;;;5.40;66.10;;;;;;5055323;28;20025;-63
2022/01/29 04:41:04;;;;;;;18.77;6.80;;;5.40;66.10;;;;;;5057312;28;20034;-63
2022/01/29 04:43:35;;;;;;;15.43;6.15;;;5.40;66.00;;;;;;5061746;28;20051;-63
2022/01/29 04:46:01;;;;;;;16.80;6.82;;;5.50;66.00;;;;;;5061186;28;20037;-63
2022/01/29 04:48:27;;;;;;;20.20;7.15;;;5.50;66.80;;;;;;5051676;28;20484;-63
2022/01/29 04:50:53;;;;;;;20.45;6.82;;;5.50;66.20;;;;;;5070118;28;20037;-63
2022/01/29 04:53:19;;;;;;;18.67;7.45;;;5.50;66.20;;;;;;5059027;28;20339;-64
2022/01/29 04:58:29;;;;;;;20.25;7.10;;;5.50;66.50;;;;;;5072635;28;20090;-64
2022/01/29 05:00:54;;;;;;;16.33;7.03;;;5.50;66.40;;;;;;5031205;28;20494;-64
2022/01/29 05:03:20;;;;;;;20.60;7.25;;;5.50;66.60;;;;;;5059666;28;20029;-63
2022/01/29 05:05:45;;;;;;;18.75;7.57;;;5.50;66.60;;;;;;5058293;28;20041;-63
2022/01/29 05:08:12;;;;;;;21.88;7.82;;;5.50;66.60;;;;;;5057980;28;20021;-63
2022/01/29 05:10:38;;;;;;;19.70;8.10;;;5.60;66.80;;;;;;5061810;28;20029;-64
2022/01/29 05:13:07;;;;;;;24.50;7.90;;;5.50;66.80;;;;;;5045519;28;20029;-63
2022/01/29 05:29:00;;;;;;;16.75;7.30;;;5.40;67.40;;;;;;5045452;28;20086;-63
2022/01/29 05:31:26;;;;;;;20.63;7.70;;;5.40;67.50;;;;;;5061496;28;20039;-63
2022/01/29 05:33:52;;;;;;;23.02;7.75;;;5.40;67.50;;;;;;5058462;28;20025;-63
2022/01/29 05:36:17;;;;;;;21.52;7.53;;;5.40;67.50;;;;;;5081880;28;20059;-63
2022/01/29 05:38:43;;;;;;;18.85;7.53;;;5.50;67.40;;;;;;5070421;28;20108;-63
2022/01/29 05:41:09;;;;;;;16.65;7.43;;;5.40;67.60;;;;;;5069076;28;20031;-63
2022/01/29 05:43:35;;;;;;;17.15;6.93;;;5.50;67.30;;;;;;5067287;28;20081;-63
2022/01/29 05:46:01;;;;;;;22.65;7.68;;;5.50;67.20;;;;;;5053154;28;20452;-63
2022/01/29 05:48:26;;;;;;;19.40;7.32;;;5.50;67.20;;;;;;5064768;28;20020;-64
2022/01/29 05:50:52;;;;;;;17.23;7.00;;;5.50;67.20;;;;;;5071923;28;20024;-63
2022/01/29 05:53:18;;;;;;;16.98;7.80;;;5.60;67.10;;;;;;5067802;28;20035;-64
2022/01/29 05:55:44;;;;;;;19.48;8.25;;;5.60;67.10;;;;;;5069305;28;20629;-63
2022/01/29 05:58:09;;;;;;;21.30;9.43;;;5.60;67.40;;;;;;5049213;28;20358;-63
2022/01/29 06:00:35;;;;;;;21.60;8.73;;;5.50;67.70;;;;;;5049512;28;20028;-63
2022/01/29 06:03:06;;;;;;;20.30;8.40;;;5.50;67.70;;;;;;5054924;28;20455;-63
2022/01/29 06:05:32;;;;;;;18.10;8.02;;;5.50;67.60;;;;;;5063583;28;20108;-63
2022/01/29 06:07:58;;;;;;;20.67;8.40;;;5.60;67.70;;;;;;5064425;28;20032;-63
2022/01/29 06:10:25;;;;;;;18.25;8.80;;;5.60;67.70;;;;;;5062877;28;20017;-63
2022/01/29 06:13:00;;;;;;;25.73;10.32;;;5.60;67.50;;;;;;5054845;28;20041;-64
2022/01/29 06:15:27;;;;;;;19.38;9.77;;;5.60;67.60;;;;;;5053251;28;20033;-64
2022/01/29 06:17:53;;;;;;;21.50;9.35;;;5.60;67.60;;;;;;5063831;28;20037;-63
2022/01/29 06:20:19;;;;;;;19.02;10.13;;;5.60;67.60;;;;;;5056986;28;20386;-63
2022/01/29 06:22:45;;;;;;;23.20;10.23;;;5.70;67.70;;;;;;5055108;28;20056;-63
2022/01/29 06:25:11;;;;;;;19.38;10.13;;;5.70;68.00;;;;;;5056516;28;20477;-63
2022/01/29 06:27:37;;;;;;;26.55;10.57;;;5.70;67.80;;;;;;5058474;28;20386;-63
2022/01/29 06:30:03;;;;;;;23.10;9.93;;;5.70;67.60;;;;;;5070107;28;20354;-64
2022/01/29 06:32:29;;;;;;;22.85;10.32;;;5.70;67.60;;;;;;5077638;28;20028;-63
2022/01/29 06:34:55;;;;;;;20.10;10.13;;;5.80;67.80;;;;;;5059094;28;20044;-64
2022/01/29 06:37:22;;;;;;;22.20;10.10;;;5.70;67.80;;;;;;5045782;28;20016;-63
2022/01/29 06:39:48;;;;;;;26.70;9.93;;;5.70;67.80;;;;;;5042958;28;20121;-64
2022/01/29 06:42:13;;;;;;;21.15;10.27;;;5.80;67.70;;;;;;5052272;28;20032;-63
2022/01/29 06:44:39;;;;;;;23.92;10.38;;;5.80;67.60;;;;;;5073811;28;20064;-65
2022/01/29 06:47:05;;;;;;;18.08;10.38;;;5.80;67.50;;;;;;5052323;28;20039;-65
2022/01/29 06:49:31;;;;;;;25.27;10.48;;;5.80;67.50;;;;;;5060948;28;20090;-64
2022/01/29 06:51:57;;;;;;;24.45;10.45;;;5.80;67.70;;;;;;5072108;28;20029;-64
2022/01/29 06:54:22;;;;;;;23.88;11.32;;;5.80;67.70;;;;;;5059012;28;20049;-65
2022/01/29 06:56:48;;;;;;;27.27;11.68;;;5.90;67.70;;;;;;5069886;28;20496;-63
2022/01/29 06:59:33;;;;;;;23.27;11.15;;;5.90;67.60;;;;;;5063628;28;20042;-63
2022/01/29 07:01:59;;;;;;;22.27;10.40;;;5.90;67.50;;;;;;5058250;28;20094;-63
2022/01/29 07:04:24;;;;;;;23.25;11.75;;;5.90;67.30;;;;;;5081337;28;20863;-64
2022/01/29 07:06:50;;;;;;;17.92;10.18;;;6.00;67.10;;;;;;5049285;28;20072;-65
2022/01/29 07:09:16;;;;;;;27.52;12.98;;;6.10;66.90;;;;;;5069766;28;20399;-65
2022/01/29 07:11:43;;;;;;;23.05;11.32;;;6.20;66.70;;;;;;5037740;28;20021;-65
2022/01/29 07:14:15;;;;;;;22.05;10.65;;;6.10;66.60;;;;;;5058824;28;20377;-65
2022/01/29 07:16:43;;;;;;;20.27;10.73;;;6.20;66.60;;;;;;5065999;28;20132;-65
2022/01/29 07:19:09;;;;;;;17.50;10.00;;;6.10;66.80;;;;;;5059631;28;20060;-65
2022/01/29 07:21:35;;;;;;;21.48;12.48;;;6.40;66.60;;;;;;5070393;28;20095;-65
2022/01/29 07:24:01;;;;;;;18.58;10.90;;;6.50;66.00;;;;;;5052841;28;20035;-65
2022/01/29 07:26:26;;;;;;;15.00;8.85;;;6.70;65.30;;;;;;5063336;28;20052;-64
2022/01/29 07:28:52;;;;;;;18.38;9.13;;;6.80;64.70;;;;;;5052179;28;20103;-65
2022/01/29 07:31:18;;;;;;;19.95;9.88;;;6.90;64.60;;;;;;5055520;28;20091;-64
2022/01/29 07:33:44;;;;;;;18.27;9.20;;;7.00;64.40;;;;;;5067202;28;20061;-65
2022/01/29 07:36:09;;;;;;;16.35;8.85;;;7.10;63.70;;;;;;5043734;28;20052;-66
2022/01/29 07:38:35;;;;;;;17.63;9.23;;;7.10;63.00;;;;;;5068535;28;20035;-66
2022/01/29 07:41:01;;;;;;;18.05;9.43;;;7.20;62.80;;;;;;5056120;28;20119;-65
2022/01/29 07:43:26;;;;;;;17.70;9.77;;;7.20;62.50;;;;;;5057038;28;20040;-66
2022/01/29 07:45:52;;;;;;;16.38;8.93;;;7.20;62.30;;;;;;5049551;28;20054;-65
2022/01/29 07:48:18;;;;;;;18.73;9.50;;;7.20;62.00;;;;;;5054175;28;20024;-65
2022/01/29 07:50:45;;;;;;;17.85;9.52;;;7.20;61.90;;;;;;5068696;28;20508;-65
2022/01/29 07:53:11;;;;;;;17.65;9.52;;;7.20;61.90;;;;;;5063757;28;20039;-66
2022/01/29 07:55:37;;;;;;;16.50;10.00;;;7.20;61.50;;;;;;5076216;28;20028;-66
2022/01/29 07:58:06;;;;;;;18.40;9.75;;;7.20;61.60;;;;;;5069953;28;20036;-65
2022/01/29 08:00:33;;;;;;;15.38;9.07;;;7.30;61.80;;;;;;5067272;28;20031;-65
2022/01/29 08:02:59;;;;;;;15.85;9.27;;;7.20;61.30;;;;;;5069212;28;20041;-65
2022/01/29 08:05:25;;;;;;;16.33;8.77;;;7.20;61.50;;;;;;5066060;28;20393;-65
2022/01/29 08:07:50;;;;;;;15.68;8.68;;;7.20;62.20;;;;;;5068686;28;20081;-65
2022/01/29 08:10:16;;;;;;;17.35;8.70;;;7.10;61.70;;;;;;5067201;28;20064;-65
2022/01/29 08:12:42;;;;;;;19.83;9.05;;;7.10;61.60;;;;;;5053856;28;20037;-66
2022/01/29 08:15:09;;;;;;;16.33;8.90;;;7.10;61.40;;;;;;5066048;28;20017;-65
2022/01/29 08:17:35;;;;;;;16.30;8.25;;;7.20;61.30;;;;;;5052638;28;20033;-65
2022/01/29 08:20:01;;;;;;;14.13;8.57;;;7.20;61.10;;;;;;5065906;28;20067;-66
2022/01/29 08:22:28;;;;;;;15.35;8.63;;;7.20;61.10;;;;;;5052127;28;20515;-65
2022/01/29 08:24:54;;;;;;;12.73;8.10;;;7.30;61.10;;;;;;5068859;28;20037;-65
2022/01/29 08:27:20;;;;;;;14.30;8.13;;;7.40;61.00;;;;;;5053643;28;20043;-65
2022/01/29 08:29:46;;;;;;;16.77;8.50;;;7.50;60.40;;;;;;5068425;28;20024;-65
2022/01/29 08:32:13;;;;;;;21.52;9.68;;;7.60;60.10;;;;;;5064988;28;20081;-66
2022/01/29 08:34:42;;;;;;;14.85;7.15;;;7.70;60.00;;;;;;5061498;28;20113;-66
2022/01/29 08:37:09;;;;;;;12.65;7.30;;;7.70;59.20;;;;;;5064773;28;20170;-66
2022/01/29 08:39:35;;;;;;;13.45;6.53;;;7.70;59.00;;;;;;5067075;28;20024;-65
2022/01/29 08:42:01;;;;;;;14.35;6.90;;;7.70;59.20;;;;;;5065991;28;20021;-65
2022/01/29 08:44:27;;;;;;;13.13;7.53;;;7.80;58.80;;;;;;5063419;28;20032;-65
2022/01/29 08:46:53;;;;;;;12.57;7.03;;;7.80;58.50;;;;;;5047914;28;20051;-67
2022/01/29 08:49:21;;;;;;;14.57;7.15;;;8.00;59.10;;;;;;5047893;28;20482;-65
2022/01/29 08:51:47;;;;;;;13.57;6.68;;;8.10;57.80;;;;;;5065607;28;20776;-66
2022/01/29 08:54:12;;;;;;;11.43;6.32;;;8.00;57.70;;;;;;5063829;28;20037;-67
2022/01/29 08:56:38;;;;;;;13.50;6.53;;;8.10;57.90;;;;;;5046081;28;20469;-65
2022/01/29 08:59:04;;;;;;;16.60;6.93;;;8.10;57.70;;;;;;5063364;28;20071;-65
2022/01/29 09:01:30;;;;;;;11.80;6.43;;;8.10;57.70;;;;;;5047566;28;20074;-64
2022/01/29 09:03:56;;;;;;;21.55;7.50;;;8.20;57.70;;;;;;5067381;28;20446;-64
2022/01/29 09:06:22;;;;;;;9.05;5.72;;;8.30;57.10;;;;;;5057463;28;20136;-65
2022/01/29 09:08:50;;;;;;;10.85;5.90;;;8.30;56.50;;;;;;5052826;28;20033;-65
2022/01/29 09:11:16;;;;;;;13.25;5.93;;;8.30;56.60;;;;;;5048768;28;20116;-65
2022/01/29 09:13:42;;;;;;;13.73;6.60;;;8.30;56.50;;;;;;5069635;28;20036;-65
2022/01/29 09:16:09;;;;;;;11.15;6.15;;;8.30;56.70;;;;;;5066384;28;20111;-68
2022/01/29 09:18:35;;;;;;;13.57;6.30;;;8.40;56.60;;;;;;5059385;28;20031;-65
2022/01/29 09:21:00;;;;;;;15.60;6.63;;;8.40;56.40;;;;;;5062946;28;20059;-66
2022/01/29 09:23:26;;;;;;;11.32;6.28;;;8.50;56.10;;;;;;5046263;28;20052;-66
2022/01/29 09:25:53;;;;;;;10.98;5.85;;;8.50;55.90;;;;;;5068023;28;20036;-65
2022/01/29 09:28:20;;;;;;;11.88;6.45;;;8.50;56.20;;;;;;5049738;28;20082;-65
2022/01/29 09:30:48;;;;;;;9.85;5.90;;;8.60;56.50;;;;;;5067920;28;20040;-65
2022/01/29 09:33:16;;;;;;;11.95;6.10;;;8.70;56.60;;;;;;5064511;28;20039;-64
2022/01/29 09:35:42;;;;;;;9.20;5.28;;;8.70;57.10;;;;;;5069940;28;20020;-65
2022/01/29 09:38:10;;;;;;;13.75;6.53;;;8.80;57.00;;;;;;5071765;28;20446;-64
2022/01/29 09:40:38;;;;;;;10.00;5.40;;;8.90;57.30;;;;;;5067667;28;20448;-64
2022/01/29 09:43:06;;;;;;;10.98;5.55;;;9.10;57.00;;;;;;5067824;28;20597;-64
2022/01/29 09:45:33;;;;;;;11.15;5.18;;;9.10;56.50;;;;;;5063894;28;20126;-64
2022/01/29 09:48:02;;;;;;;15.07;6.97;;;9.10;56.60;;;;;;5042571;28;20021;-64
2022/01/29 09:50:33;;;;;;;11.98;6.03;;;9.30;56.40;;;;;;5061780;28;20119;-65
2022/01/29 09:53:01;;;;;;;11.13;4.93;;;9.50;56.10;;;;;;5069077;28;20016;-64
2022/01/29 09:55:26;;;;;;;10.65;5.07;;;9.60;55.40;;;;;;5070595;28;20040;-64
2022/01/29 09:57:53;;;;;;;11.77;5.18;;;9.70;54.60;;;;;;5067673;28;20057;-64
2022/01/29 10:00:20;;;;;;;8.40;4.90;;;9.80;54.10;;;;;;5053355;28;20044;-64
2022/01/29 10:03:13;;;;;;;12.07;4.47;;;9.90;53.80;;;;;;5051692;28;20067;-63
2022/01/29 10:05:42;;;;;;;16.20;5.32;;;9.90;52.00;;;;;;5056361;28;20108;-65
2022/01/29 10:08:09;;;;;;;10.23;4.90;;;9.90;51.90;;;;;;5053579;28;20045;-64
2022/01/29 10:10:40;;;;;;;10.13;4.20;;;9.90;50.90;;;;;;5072018;28;20107;-64
2022/01/29 10:13:36;;;;;;;10.48;4.25;;;9.80;50.10;;;;;;5060020;28;20017;-64
2022/01/29 10:16:20;;;;;;;9.90;4.22;;;9.70;49.30;;;;;;5065519;28;20028;-64
2022/01/29 10:18:59;;;;;;;8.70;4.47;;;9.60;49.70;;;;;;5042539;28;20166;-65
2022/01/29 10:21:30;;;;;;;6.95;3.72;;;9.70;49.50;;;;;;5047248;28;20508;-65
2022/01/29 10:24:16;;;;;;;6.40;3.70;;;9.70;49.10;;;;;;5090708;28;20024;-63
2022/01/29 10:26:44;;;;;;;8.52;4.10;;;9.70;49.00;;;;;;5082021;28;20032;-64
2022/01/29 10:29:18;;;;;;;9.00;4.35;;;9.70;48.90;;;;;;5090610;28;20020;-64
2022/01/29 10:31:44;;;;;;;8.93;3.70;;;9.80;48.60;;;;;;5090411;28;20024;-64
2022/01/29 10:34:19;;;;;;;9.27;3.85;;;9.80;48.20;;;;;;5082999;28;20438;-64
2022/01/29 10:37:05;;;;;;;9.23;3.80;;;9.90;48.60;;;;;;5086100;28;20124;-64
2022/01/29 10:39:31;;;;;;;7.25;3.63;;;10.00;48.10;;;;;;5081297;28;20076;-65
2022/01/29 10:41:57;;;;;;;8.93;3.80;;;10.10;48.00;;;;;;5080013;28;20414;-64
2022/01/29 10:44:23;;;;;;;8.35;4.00;;;10.10;48.00;;;;;;5095728;28;20015;-64
2022/01/29 10:46:51;;;;;;;9.13;3.83;;;10.20;47.80;;;;;;5086521;28;20054;-64
2022/01/29 10:49:26;;;;;;;6.47;3.65;;;10.30;47.60;;;;;;5086860;28;20029;-66
2022/01/29 10:52:08;;;;;;;7.30;4.00;;;10.40;47.20;;;;;;5080279;28;20031;-65
2022/01/29 10:54:36;;;;;;;7.18;3.55;;;10.30;47.50;;;;;;5089747;28;20024;-64
2022/01/29 10:57:04;;;;;;;6.70;3.88;;;10.30;47.60;;;;;;5093343;28;20024;-65
2022/01/29 10:59:36;;;;;;;10.02;4.72;;;10.20;48.40;;;;;;5089041;28;20023;-65
2022/01/29 11:02:07;;;;;;;10.65;4.05;;;10.10;48.10;;;;;;5090406;28;20024;-64
2022/01/29 11:04:35;;;;;;;9.10;4.15;;;10.10;48.40;;;;;;5093211;28;20031;-65
2022/01/29 11:07:05;;;;;;;8.52;4.38;;;10.00;48.80;;;;;;5084525;28;20392;-64
2022/01/29 11:09:31;;;;;;;9.27;4.63;;;10.00;49.00;;;;;;5076523;28;20017;-64
2022/01/29 11:12:00;;;;;;;7.65;3.92;;;10.10;49.70;;;;;;5082653;28;20028;-65
2022/01/29 11:14:30;;;;;;;10.48;4.20;;;10.10;49.10;;;;;;5077057;28;20116;-65
2022/01/29 11:16:58;;;;;;;8.80;4.45;;;10.20;49.20;;;;;;5082008;28;20071;-65
2022/01/29 11:19:23;;;;;;;10.10;4.22;;;10.20;48.90;;;;;;5084097;28;20028;-64
2022/01/29 11:21:53;;;;;;;6.97;4.05;;;10.20;48.90;;;;;;5080873;28;20052;-64
2022/01/29 11:24:23;;;;;;;8.30;4.15;;;10.20;49.20;;;;;;5091967;28;20110;-65
2022/01/29 11:26:50;;;;;;;9.73;3.95;;;10.20;49.20;;;;;;5088376;28;20073;-64
2022/01/29 11:29:22;;;;;;;8.75;3.70;;;10.20;49.50;;;;;;5086221;28;20024;-65
2022/01/29 11:31:48;;;;;;;6.03;4.00;;;10.10;49.80;;;;;;5087695;28;20028;-65
2022/01/29 11:34:21;;;;;;;10.20;4.28;;;10.10;50.40;;;;;;5078193;28;20032;-65
2022/01/29 11:36:47;;;;;;;6.72;4.20;;;10.10;51.00;;;;;;5081776;28;20048;-65
2022/01/29 11:39:19;;;;;;;8.15;3.75;;;10.10;51.40;;;;;;5085677;28;20457;-66
2022/01/29 11:41:44;;;;;;;7.07;4.00;;;10.00;53.90;;;;;;5086189;28;20138;-65
2022/01/29 11:44:40;;;;;;;7.85;4.28;;;9.90;57.30;;;;;;5090207;28;20548;-65
2022/01/29 11:47:25;;;;;;;9.30;4.00;;;9.70;58.70;;;;;;5073440;28;20437;-64
2022/01/29 11:49:52;;;;;;;7.53;3.50;;;9.60;59.00;;;;;;5079666;28;20030;-64
2022/01/29 11:52:24;;;;;;;9.00;4.75;;;9.50;59.50;;;;;;5082780;28;20019;-64
2022/01/29 11:55:06;;;;;;;8.93;4.10;;;9.40;60.00;;;;;;5088566;28;20269;-65
2022/01/29 11:57:31;;;;;;;8.25;4.30;;;9.40;60.40;;;;;;5088817;28;20074;-64
2022/01/29 12:00:48;;;;;;;8.30;3.92;;;9.30;60.90;;;;;;5091755;28;20080;-64
2022/01/29 12:03:36;;;;;;;8.57;4.50;;;9.30;62.00;;;;;;5065467;28;20501;-65
2022/01/29 12:06:29;;;;;;;10.18;5.38;;;9.20;62.20;;;;;;5088449;28;20036;-65
2022/01/29 12:11:27;;;;;;;11.15;4.57;;;9.20;62.80;;;;;;5077161;28;20102;-65
2022/01/29 12:14:15;;;;;;;10.30;4.93;;;9.20;62.90;;;;;;5081460;28;20016;-64
2022/01/29 12:16:59;;;;;;;8.60;4.97;;;9.20;63.60;;;;;;5083537;28;20814;-64
2022/01/29 12:19:41;;;;;;;14.20;6.63;;;9.10;63.90;;;;;;5085079;28;20028;-64
2022/01/29 12:22:31;;;;;;;9.15;4.88;;;9.00;64.40;;;;;;5079325;28;20052;-64
2022/01/29 12:24:59;;;;;;;7.00;4.57;;;9.10;64.60;;;;;;5067630;28;20039;-65
2022/01/29 12:27:41;;;;;;;8.68;4.30;;;9.20;64.80;;;;;;5065204;28;20040;-65
2022/01/29 12:30:10;;;;;;;7.40;4.55;;;9.20;64.80;;;;;;5067577;28;20031;-64
2022/01/29 12:32:36;;;;;;;8.00;4.50;;;9.10;64.60;;;;;;5062718;28;20055;-65
2022/01/29 12:35:03;;;;;;;7.78;4.40;;;9.10;65.20;;;;;;5049431;28;20455;-66
2022/01/29 12:37:30;;;;;;;8.15;4.65;;;9.00;65.20;;;;;;5071131;28;20020;-65
2022/01/29 12:40:21;;;;;;;8.15;4.50;;;9.10;65.30;;;;;;5070046;28;20035;-65
2022/01/29 12:42:56;;;;;;;10.13;5.20;;;9.10;65.40;;;;;;5067515;28;20480;-66
2022/01/29 12:45:31;;;;;;;6.30;3.47;;;9.20;65.30;;;;;;5052261;28;20032;-63
2022/01/29 12:48:11;;;;;;;8.98;3.78;;;9.20;65.00;;;;;;5069596;28;20025;-64
2022/01/29 12:50:38;;;;;;;7.88;3.22;;;9.10;65.00;;;;;;5053432;28;20021;-65
2022/01/29 12:53:19;;;;;;;7.95;4.15;;;8.90;65.80;;;;;;5076740;28;20021;-65
2022/01/29 12:56:09;;;;;;;6.45;3.10;;;8.80;66.50;;;;;;5048127;28;20044;-65
2022/01/29 12:58:40;;;;;;;6.72;3.40;;;8.70;67.10;;;;;;5065117;28;20115;-65
2022/01/29 13:01:07;;;;;;;6.40;3.28;;;8.60;67.50;;;;;;5080754;28;20052;-64
2022/01/29 13:03:33;;;;;;;8.57;3.50;;;8.60;68.20;;;;;;5067420;28;20031;-65
2022/01/29 13:06:16;;;;;;;8.60;4.03;;;8.40;69.60;;;;;;5069376;28;20037;-64
2022/01/29 13:08:44;;;;;;;5.40;2.72;;;8.40;69.40;;;;;;5067116;28;20021;-64
2022/01/29 13:11:26;;;;;;;7.53;3.97;;;8.40;68.80;;;;;;5055178;28;20028;-64
2022/01/29 13:13:52;;;;;;;6.72;3.00;;;8.50;68.20;;;;;;5061411;28;20028;-65
2022/01/29 13:16:19;;;;;;;5.90;3.10;;;8.40;67.20;;;;;;5066994;28;20134;-64